Stations météo

réclame
Mon MeteoGroup
Nordseeboje II, Allemagne (10008): Température de l'air & dewpoint: 19.02.2018 06:00:00 - 25.02.2018 06:00:00 (CET)Nordseeboje II, Allemagne (10008): water temperature: 19.02.2018 06:00:00 - 25.02.2018 06:00:00 (CET)Nordseeboje II, Allemagne (10008): Vitesse du vent: 19.02.2018 06:00:00 - 25.02.2018 06:00:00 (CET)Nordseeboje II, Allemagne (10008): Direction du vent: 19.02.2018 06:00:00 - 25.02.2018 06:00:00 (CET)Nordseeboje II, Allemagne (10008): reduced air pressure: 19.02.2018 06:00:00 - 25.02.2018 06:00:00 (CET)
Date & Time tt [°C] td [°C] tw [°C] ff [km/h] ff [knt] dd ppp [hPa]
25.02.2018 06:00:00 0,3 -6,7 5,2 18 10 E 1035,1
25.02.2018 05:00:00 0,6 -5,6 5,3 22 12 E 1034,8
25.02.2018 04:00:00 0,3 -5,5 5,3 25 14 ESE 1034,8
25.02.2018 03:00:00 0,4 -5,5 5,5 29 16 ESE 1034,9
25.02.2018 02:00:00 0,4 -6,0 5,3 29 16 SE 1034,8
25.02.2018 01:00:00 0,4 -5,7 5,1 29 16 SE 1034,9
25.02.2018 00:00:00 0,4 -5,8 5,0 36 19 ESE 1034,8
24.02.2018 23:00:00 0,5 -5,8 5,1 36 19 ESE 1034,8
24.02.2018 22:00:00 0,6 -5,8 5,2 36 19 ESE 1034,5
24.02.2018 21:00:00 0,7 -5,9 4,9 36 19 ESE 1034,1
24.02.2018 20:00:00 0,9 -5,7 5,3 36 19 ESE 1033,8
24.02.2018 19:00:00 1,4 -4,8 4,8 40 21 ESE 1033,5
24.02.2018 18:00:00 1,2 -5,4 5,1 36 19 ESE 1033,2
24.02.2018 17:00:00 1,3 -5,3 5,1 36 19 ESE 1033,0
24.02.2018 16:00:00 1,5 -3,9 5,1 32 18 E 1033,2
24.02.2018 15:00:00 1,5 -3,5 5,3 32 18 ESE 1033,3
24.02.2018 14:00:00 1,5 -2,7 5,1 32 18 ESE 1033,1
24.02.2018 13:00:00 1,6 -2,6 5,0 32 18 ESE 1033,0
24.02.2018 12:00:00 1,6 -2,5 5,2 36 19 ESE 1032,9
24.02.2018 11:00:00 1,2 -2,6 4,9 36 19 ESE 1032,5
24.02.2018 10:00:00 1,1 -2,1 5,1 36 19 ESE 1032,4
24.02.2018 09:00:00 1,1 -1,9 5,1 36 19 ESE 1032,0
24.02.2018 08:00:00 1,1 -2,5 4,9 36 19 ESE 1031,4
24.02.2018 07:00:00 1,4 -1,9 5,2 32 18 ESE 1031,0
24.02.2018 06:00:00 1,4 -2,4 5,3 32 18 ESE 1030,6
24.02.2018 05:00:00 1,5 -2,3 5,4 32 18 ESE 1030,0
24.02.2018 04:00:00 1,8 -2,1 5,1 32 18 SE 1029,9
24.02.2018 03:00:00 1,9 -2,4 5,0 36 19 ESE 1029,6
24.02.2018 02:00:00 1,9 -2,2 5,2 36 19 ESE 1029,6
24.02.2018 01:00:00 2,1 -1,6 5,3 36 19 ESE 1029,4
24.02.2018 00:00:00 2,0 -2,2 5,0 36 19 ESE 1029,1
23.02.2018 23:00:00 1,9 -2,7 5,0 32 18 ESE 1028,9
23.02.2018 22:00:00 2,4 -2,6 5,4 32 18 ESE 1028,7
23.02.2018 21:00:00 2,3 -4,0 5,0 32 18 ESE 1028,3
23.02.2018 20:00:00 2,4 -3,0 5,3 32 18 ESE 1028,1
23.02.2018 19:00:00 2,2 -2,6 5,1 29 16 ESE 1027,8
23.02.2018 18:00:00 1,8 -2,3 5,3 29 16 ESE 1027,8
23.02.2018 17:00:00 1,8 -4,1 5,1 25 14 E 1027,7
23.02.2018 16:00:00 1,7 -3,9 5,4 22 12 ESE 1027,7
23.02.2018 15:00:00 1,7 -3,5 5,3 22 12 ESE 1027,8
23.02.2018 14:00:00 1,9 -4,8 5,0 22 12 ESE 1028,0
23.02.2018 13:00:00 2,0 -4,9 5,5 22 12 SE 1028,2
23.02.2018 12:00:00 1,9 -4,2 5,3 22 12 ESE 1028,6
23.02.2018 11:00:00 1,9 -3,2 5,4 22 12 SE 1028,4
23.02.2018 10:00:00 2,0 -3,0 5,4 22 12 SE 1028,3
23.02.2018 09:00:00 2,0 -3,4 5,0 22 12 ESE 1028,1
23.02.2018 08:00:00 1,8 -2,6 5,4 18 10 ESE 1027,9
23.02.2018 07:00:00 1,9 -2,8 5,2 18 10 ESE 1027,6
23.02.2018 06:00:00 2,0 -2,8 5,4 18 10 ESE 1027,3
23.02.2018 05:00:00 2,2 -2,9 5,3 18 10 SE 1026,9
23.02.2018 04:00:00 2,1 -3,3 5,5 18 10 SE 1027,1
23.02.2018 03:00:00 2,5 -1,9 5,2 18 10 SE 1027,5
23.02.2018 02:00:00 2,6 -2,2 5,2 18 10 SE 1027,6
23.02.2018 01:00:00 2,7 -1,1 5,3 25 14 SE 1027,5
23.02.2018 00:00:00 3,1 -0,4 5,2 29 16 SE 1027,2
22.02.2018 23:00:00 3,4 0,4 5,2 22 12 SE 1027,5
22.02.2018 22:00:00 3,6 0,8 5,1 22 12 SE 1027,3
22.02.2018 21:00:00 3,7 1,2 5,3 22 12 SE 1027,1
22.02.2018 20:00:00 3,9 1,4 5,2 18 10 ESE 1027,1
22.02.2018 19:00:00 3,9 1,2 5,1 18 10 ESE 1026,9
22.02.2018 18:00:00 3,6 1,8 5,4 22 12 E 1026,9
22.02.2018 17:00:00 3,1 2,1 5,4 25 14 E 1026,8
22.02.2018 16:00:00 4,6 1,1 5,0 7 4 E 1026,7
22.02.2018 15:00:00 4,8 1,0 5,3 7 4 ENE 1026,7
22.02.2018 14:00:00 4,4 1,5 5,4 11 6 NE 1027,2
22.02.2018 13:00:00 4,8 1,5 5,4 11 6 NE 1027,5
22.02.2018 12:00:00 4,9 1,9 5,2 14 8 N 1027,7
22.02.2018 11:00:00 4,8 2,4 5,3 18 10 NW 1027,5
22.02.2018 10:00:00 - - - - - - -
22.02.2018 09:00:00 4,2 2,1 5,2 18 10 WNW 1027,4
22.02.2018 08:00:00 4,1 1,7 5,1 18 10 W 1027,4
22.02.2018 07:00:00 - - - - - - -
22.02.2018 06:00:00 - - - - - - -
22.02.2018 05:00:00 3,7 0,1 5,1 18 10 W 1027,4
22.02.2018 04:00:00 3,6 -0,5 5,2 14 8 W 1027,6
22.02.2018 03:00:00 3,5 -0,6 5,1 14 8 W 1027,8
22.02.2018 02:00:00 3,9 0,6 5,5 4 2 N 1027,4
22.02.2018 01:00:00 3,4 -1,3 5,2 11 6 W 1028,2
22.02.2018 00:00:00 3,2 -1,7 5,3 11 6 W 1028,3
21.02.2018 23:00:00 3,2 -1,9 5,4 11 6 W 1028,5
21.02.2018 22:00:00 3,0 -2,2 5,2 7 4 WSW 1028,6
21.02.2018 21:00:00 3,0 -2,6 5,3 7 4 WSW 1028,5
21.02.2018 20:00:00 2,9 -2,8 5,3 7 4 SW 1028,2
21.02.2018 19:00:00 2,8 -3,4 5,2 4 2 N 1028,1
21.02.2018 18:00:00 2,8 -3,4 5,5 7 4 SSW 1027,7
21.02.2018 17:00:00 3,8 -3,5 5,4 7 4 S 1027,6
21.02.2018 16:00:00 3,7 -3,8 5,1 7 4 SSE 1027,6
21.02.2018 15:00:00 4,7 -3,4 5,0 7 4 SSE 1027,9
21.02.2018 14:00:00 3,9 -3,6 5,2 7 4 SSE 1028,2
21.02.2018 13:00:00 3,2 -3,6 5,1 7 4 SE 1028,7
21.02.2018 12:00:00 3,0 -3,1 5,1 11 6 SE 1028,8
21.02.2018 11:00:00 2,9 -3,5 5,5 11 6 ESE 1028,7
21.02.2018 10:00:00 2,9 -4,2 5,3 7 4 ESE 1028,4
21.02.2018 09:00:00 2,9 -3,3 5,3 11 6 SSE 1027,7
21.02.2018 08:00:00 2,8 -3,0 5,1 11 6 SE 1027,5
21.02.2018 07:00:00 3,0 -3,0 5,2 11 6 ESE 1027,3
21.02.2018 06:00:00 2,9 -2,7 5,3 7 4 SE 1027,4
21.02.2018 05:00:00 3,0 -2,4 5,1 11 6 SE 1027,3
21.02.2018 04:00:00 3,1 -2,3 5,3 14 8 SE 1027,6
21.02.2018 03:00:00 3,2 -2,6 5,4 11 6 ESE 1027,8
21.02.2018 02:00:00 3,3 -2,4 5,0 18 10 ESE 1027,5
21.02.2018 01:00:00 3,4 -1,9 5,4 22 12 SE 1027,2
21.02.2018 00:00:00 3,5 -1,9 4,9 29 16 SE 1026,3
20.02.2018 23:00:00 3,6 -0,3 5,2 22 12 SE 1026,7
20.02.2018 22:00:00 4,0 0,5 5,1 22 12 ESE 1026,1
20.02.2018 21:00:00 4,0 1,0 5,2 22 12 ESE 1025,6
20.02.2018 20:00:00 4,0 0,7 5,3 11 6 ESE 1025,5
20.02.2018 19:00:00 4,0 0,8 5,4 18 10 ESE 1024,3
20.02.2018 18:00:00 4,1 1,7 5,6 14 8 ESE 1023,8
20.02.2018 17:00:00 4,2 1,5 5,3 14 8 ESE 1022,8
20.02.2018 16:00:00 4,1 1,1 5,3 22 12 SE 1022,2
20.02.2018 15:00:00 4,3 1,3 5,5 22 12 SSE 1021,9
20.02.2018 14:00:00 3,8 2,2 5,3 22 12 ESE 1021,6
20.02.2018 13:00:00 3,8 2,4 5,1 18 10 E 1021,3
20.02.2018 12:00:00 3,7 2,5 5,1 11 6 ESE 1021,3
20.02.2018 11:00:00 3,9 2,5 5,2 11 6 E 1020,9
20.02.2018 10:00:00 3,8 2,3 5,1 14 8 SE 1020,3
20.02.2018 09:00:00 3,5 2,0 5,2 22 12 ESE 1019,8
20.02.2018 08:00:00 4,1 2,7 5,2 18 10 ESE 1019,8
20.02.2018 07:00:00 3,8 2,6 5,5 18 10 E 1019,6
20.02.2018 06:00:00 4,0 2,8 5,1 22 12 E 1019,4
20.02.2018 05:00:00 3,9 2,7 5,3 14 8 ENE 1019,6
20.02.2018 04:00:00 3,9 2,5 5,4 14 8 ENE 1019,6
20.02.2018 03:00:00 3,9 2,3 5,2 14 8 ENE 1019,5
20.02.2018 02:00:00 4,0 2,2 5,2 18 10 E 1019,3
20.02.2018 01:00:00 4,1 1,2 5,1 11 6 E 1019,5
20.02.2018 00:00:00 4,1 1,0 5,3 14 8 E 1019,2
19.02.2018 23:00:00 4,5 2,4 5,4 11 6 ENE 1019,2
19.02.2018 22:00:00 4,6 2,7 5,0 7 4 E 1019,4
19.02.2018 21:00:00 4,7 3,1 5,2 7 4 E 1019,4
19.02.2018 20:00:00 4,7 3,1 5,1 7 4 ESE 1019,3
19.02.2018 19:00:00 4,7 3,2 5,4 4 2 N 1019,1
19.02.2018 18:00:00 4,6 3,2 5,6 4 2 N 1018,6
19.02.2018 17:00:00 4,6 3,2 5,2 7 4 SW 1018,5
19.02.2018 16:00:00 4,8 3,2 5,0 11 6 SSW 1018,4
19.02.2018 15:00:00 4,7 2,5 5,1 14 8 S 1018,3
19.02.2018 14:00:00 4,9 2,5 5,3 11 6 S 1018,4
19.02.2018 13:00:00 5,4 2,4 5,5 14 8 S 1018,3
19.02.2018 12:00:00 5,2 3,0 5,1 14 8 S 1018,6
19.02.2018 11:00:00 4,9 3,3 5,0 14 8 SSW 1018,6
19.02.2018 10:00:00 5,2 3,4 5,4 14 8 S 1018,7
19.02.2018 09:00:00 4,9 3,5 5,2 14 8 S 1018,7
19.02.2018 08:00:00 4,8 3,7 5,4 14 8 S 1018,7
19.02.2018 07:00:00 4,9 3,7 5,2 18 10 SSW 1018,4
19.02.2018 06:00:00 4,9 3,6 4,9 14 8 SSW 1018,7

tt = Température de l'air
td = dewpoint
tw = water temperature
ff = Vitesse du vent
dd = Direction du vent
ppp = reduced air pressure

stations d'obs. à proximité